Time;durP1;ratioP1;P1;durP2;ratioP2;P2;SDS_P1;SDS_P2;PMS_P1;PMS_P2;Temp;Humidity;BMP_temperature;BMP_pressure;BME280_temperature;BME280_humidity;BME280_pressure;Samples;Min_cycle;Max_cycle;Signal;HPM_P1;HPM_P2
2022/12/27 00:01:25;;;;;;;8.65;2.22;;;;;;;9.19;63.59;102021.19;5013871;28;20048;-69
2022/12/27 00:03:51;;;;;;;11.30;2.63;;;;;;;9.65;62.04;102014.53;5013809;28;20038;-69
2022/12/27 00:06:19;;;;;;;12.80;2.90;;;;;;;8.83;64.34;102018.44;5014011;28;20041;-69
2022/12/27 00:08:46;;;;;;;13.85;3.35;;;;;;;9.18;64.05;102019.56;5013965;28;20124;-69
2022/12/27 00:11:15;;;;;;;11.52;3.80;;;;;;;9.33;63.35;102014.97;5011145;28;20056;-69
2022/12/27 00:13:40;;;;;;;13.30;2.65;;;;;;;8.92;64.91;102027.25;5013035;28;20053;-68
2022/12/27 00:16:09;;;;;;;15.10;2.92;;;;;;;9.27;64.39;102035.34;5012539;28;20054;-69
2022/12/27 00:18:35;;;;;;;9.93;2.95;;;;;;;9.30;64.94;102021.53;5013455;28;20040;-68
2022/12/27 00:21:02;;;;;;;12.13;2.75;;;;;;;9.62;63.31;102020.25;5014036;28;20498;-70
2022/12/27 00:23:31;;;;;;;10.30;2.35;;;;;;;9.39;64.10;102020.44;5013854;28;20030;-68
2022/12/27 00:26:01;;;;;;;16.08;3.67;;;;;;;9.45;63.78;102025.00;5013474;28;20041;-67
2022/12/27 00:28:29;;;;;;;16.10;3.70;;;;;;;9.57;63.04;102026.19;5013998;28;20474;-69
2022/12/27 00:30:55;;;;;;;14.30;3.50;;;;;;;9.00;65.03;102030.66;5014487;28;20040;-68
2022/12/27 00:33:20;;;;;;;22.50;4.35;;;;;;;9.14;64.69;102029.78;5013766;28;20046;-70
2022/12/27 00:35:46;;;;;;;8.85;3.13;;;;;;;9.12;64.63;102029.16;4995219;28;20038;-67
2022/12/27 00:38:11;;;;;;;18.13;4.50;;;;;;;9.18;65.06;102038.31;4994055;28;20432;-68
2022/12/27 00:40:40;;;;;;;10.95;3.53;;;;;;;9.30;64.61;102023.38;5004346;28;20034;-68
2022/12/27 00:43:06;;;;;;;8.60;2.65;;;;;;;8.98;65.34;102021.13;5013972;28;20022;-71
2022/12/27 00:45:31;;;;;;;9.38;3.25;;;;;;;8.82;66.55;102040.91;5013565;28;20042;-68
2022/12/27 00:47:56;;;;;;;7.97;3.05;;;;;;;9.00;65.93;102032.50;4995227;28;20442;-70
2022/12/27 00:50:22;;;;;;;14.25;3.80;;;;;;;9.22;65.42;102029.69;5013270;28;20378;-68
2022/12/27 00:52:47;;;;;;;5.68;3.15;;;;;;;8.95;65.52;102045.63;5013256;28;20046;-69
2022/12/27 00:55:13;;;;;;;10.68;3.92;;;;;;;8.79;67.12;102054.66;5013650;28;20033;-69
2022/12/27 00:57:38;;;;;;;13.80;3.05;;;;;;;8.93;66.19;102039.59;5012811;28;20049;-68
2022/12/27 01:00:05;;;;;;;8.25;3.33;;;;;;;9.35;65.35;102043.28;5012279;28;20481;-69
2022/12/27 01:02:30;;;;;;;12.98;3.00;;;;;;;9.00;66.07;102054.78;5010093;28;20026;-68
2022/12/27 01:04:56;;;;;;;13.95;3.50;;;;;;;8.82;66.76;102049.75;5012026;28;20087;-69
2022/12/27 01:07:22;;;;;;;7.10;3.13;;;;;;;9.08;66.37;102052.00;5012299;28;20381;-69
2022/12/27 01:09:47;;;;;;;8.65;2.78;;;;;;;8.78;66.86;102058.38;5011477;28;20128;-68
2022/12/27 01:12:13;;;;;;;13.13;2.75;;;;;;;8.72;67.61;102065.31;5011921;28;20126;-69
2022/12/27 01:14:38;;;;;;;11.70;2.45;;;;;;;8.82;67.04;102063.16;5012244;28;20045;-67
2022/12/27 01:17:04;;;;;;;9.88;2.97;;;;;;;8.80;67.51;102064.38;5027196;28;20516;-68
2022/12/27 01:19:29;;;;;;;9.93;3.03;;;;;;;8.85;67.00;102075.38;5012147;28;20169;-69
2022/12/27 01:21:55;;;;;;;16.42;3.00;;;;;;;8.70;67.57;102074.53;5012495;28;20099;-68
2022/12/27 01:24:20;;;;;;;11.05;3.88;;;;;;;8.81;67.34;102074.06;5012007;28;20461;-69
2022/12/27 01:26:45;;;;;;;15.20;4.35;;;;;;;8.95;66.43;102077.78;5011650;28;20040;-69
2022/12/27 01:29:12;;;;;;;11.80;3.45;;;;;;;9.29;66.01;102070.84;5011971;28;20046;-68
2022/12/27 01:31:37;;;;;;;15.40;3.22;;;;;;;9.11;66.68;102077.59;5012356;28;20056;-70
2022/12/27 01:34:03;;;;;;;15.48;3.85;;;;;;;9.09;66.52;102074.28;5012980;28;20022;-68
2022/12/27 01:36:30;;;;;;;17.50;4.30;;;;;;;8.89;67.37;102076.69;4994673;28;20048;-69
2022/12/27 01:38:56;;;;;;;20.63;5.60;;;;;;;8.90;67.69;102083.72;5012682;28;20125;-70
2022/12/27 01:44:40;;;;;;;12.13;3.53;;;;;;;9.06;67.25;102096.91;4951403;29;20043;-69
2022/12/27 01:47:25;;;;;;;26.25;3.63;;;;;;;8.71;68.49;102084.22;4951217;29;20754;-68
2022/12/27 01:50:20;;;;;;;13.38;3.33;;;;;;;9.01;66.96;102091.28;4951139;28;20123;-68
2022/12/27 01:52:58;;;;;;;10.30;3.13;;;;;;;9.20;67.07;102092.59;4950654;28;20055;-69
2022/12/27 01:55:32;;;;;;;6.30;2.75;;;;;;;9.18;67.54;102091.97;4951184;28;20143;-68
2022/12/27 01:58:22;;;;;;;5.22;2.03;;;;;;;9.20;66.62;102097.97;4951631;29;20059;-69
2022/12/27 02:00:48;;;;;;;10.38;3.22;;;;;;;9.12;67.15;102103.41;4951144;29;20051;-70
2022/12/27 02:03:20;;;;;;;12.65;4.00;;;;;;;9.06;67.96;102114.88;4951113;28;20039;-70
2022/12/27 02:05:47;;;;;;;11.63;3.38;;;;;;;9.35;66.26;102102.31;4951228;29;20043;-68
2022/12/27 02:08:20;;;;;;;8.18;2.80;;;;;;;9.17;66.59;102103.69;4951000;28;20134;-69
2022/12/27 02:10:45;;;;;;;11.82;3.63;;;;;;;9.49;65.74;102101.44;4950739;28;20384;-68
2022/12/27 02:13:11;;;;;;;11.95;3.22;;;;;;;9.37;65.86;102100.28;4950996;29;20047;-69
2022/12/27 02:15:36;;;;;;;14.90;3.10;;;;;;;9.36;65.98;102117.38;4987097;28;20052;-67
2022/12/27 02:18:02;;;;;;;16.08;3.35;;;;;;;9.14;66.51;102120.97;5012052;28;20367;-68
2022/12/27 02:20:33;;;;;;;13.15;2.85;;;;;;;9.15;66.52;102122.66;5011905;28;20033;-69
2022/12/27 02:26:26;;;;;;;14.52;3.22;;;;;;;9.84;64.94;102120.44;5012133;28;20097;-69
2022/12/27 02:29:04;;;;;;;17.48;2.90;;;;;;;9.70;65.70;102127.50;5011968;28;20040;-68
2022/12/27 02:31:59;;;;;;;11.57;3.08;;;;;;;9.34;67.17;102140.03;5011648;28;20108;-67
2022/12/27 02:34:33;;;;;;;18.27;3.60;;;;;;;9.13;68.44;102123.84;5006100;28;20038;-69
2022/12/27 02:37:06;;;;;;;11.27;2.53;;;;;;;8.65;70.70;102135.88;5012412;28;20558;-67
2022/12/27 02:39:38;;;;;;;15.10;3.45;;;;;;;9.08;69.08;102123.56;5027086;28;20513;-69
2022/12/27 02:54:02;;;;;;;14.55;4.50;;;;;;;9.55;67.46;102138.25;4951016;29;20110;-67
2022/12/27 02:57:08;;;;;;;5.25;1.95;;;;;;;9.71;66.91;102142.56;4950615;29;20047;-69
2022/12/27 03:03:27;;;;;;;23.45;4.80;;;;;;;9.32;67.40;102148.25;4950473;29;20534;-68
2022/12/27 03:08:54;;;;;;;13.40;2.60;;;;;;;9.43;68.00;102145.13;4926242;29;20046;-69
2022/12/27 03:17:49;;;;;;;13.77;3.17;;;;;;;9.93;66.06;102143.47;4931087;29;20047;-68
2022/12/27 03:25:50;;;;;;;6.53;2.72;;;;;;;9.43;67.68;102150.50;4897012;29;20611;-68
2022/12/27 03:39:48;;;;;;;14.50;4.47;;;;;;;9.42;69.04;102156.03;4915631;29;20046;-70
2022/12/27 03:45:06;;;;;;;10.70;2.22;;;;;;;9.19;69.19;102157.97;4915806;29;20130;-69
2022/12/27 03:47:42;;;;;;;16.08;3.05;;;;;;;9.23;68.96;102161.94;4915525;29;20133;-69
2022/12/27 03:50:15;;;;;;;14.13;2.88;;;;;;;9.61;68.03;102153.59;4923713;29;20039;-69
2022/12/27 03:52:47;;;;;;;9.82;2.78;;;;;;;9.31;70.13;102151.97;4934538;29;20047;-68
2022/12/27 03:55:13;;;;;;;5.25;2.30;;;;;;;9.23;69.44;102160.09;4934995;29;20040;-69
2022/12/27 03:57:40;;;;;;;12.95;3.45;;;;;;;9.07;69.96;102171.00;5008535;28;20568;-69
2022/12/27 04:00:06;;;;;;;10.80;2.75;;;;;;;9.74;67.43;102161.00;5014540;28;20084;-68
2022/12/27 04:02:31;;;;;;;16.25;3.45;;;;;;;9.62;68.19;102159.81;5013873;28;20520;-69
2022/12/27 04:04:57;;;;;;;9.80;2.97;;;;;;;9.49;68.06;102162.34;5013926;28;20037;-68
2022/12/27 04:07:22;;;;;;;5.13;2.85;;;;;;;9.52;67.93;102165.47;5014062;28;20103;-68
2022/12/27 04:37:07;;;;;;;14.50;3.72;;;;;;;9.13;70.22;102202.44;5014465;28;20076;-68
2022/12/27 04:39:32;;;;;;;13.20;3.83;;;;;;;9.56;68.79;102200.81;5013537;28;20088;-67
2022/12/27 04:54:55;;;;;;;12.70;4.13;;;;;;;9.28;69.08;102207.81;5013648;28;20060;-68
2022/12/27 04:55:59;;;;;;;23.83;4.82;;;;;;;9.98;66.99;102200.97;5012690;28;20410;-68
2022/12/27 04:58:24;;;;;;;13.20;4.15;;;;;;;9.49;68.71;102203.38;5012211;28;20026;-70
2022/12/27 05:03:35;;;;;;;22.67;4.00;;;;;;;9.60;68.14;102223.56;5011619;28;20045;-71
2022/12/27 05:06:02;;;;;;;10.85;4.68;;;;;;;9.55;68.26;102220.63;4994069;28;20402;-69
2022/12/27 05:14:00;;;;;;;19.67;3.85;;;;;;;9.83;67.37;102212.75;5012553;28;20053;-70
2022/12/27 05:16:36;;;;;;;20.55;4.57;;;;;;;9.28;68.71;102219.38;5012461;28;20078;-69
2022/12/27 05:19:03;;;;;;;14.68;3.58;;;;;;;9.68;67.98;102216.28;5013388;28;20033;-68
2022/12/27 05:21:29;;;;;;;13.45;3.60;;;;;;;9.61;68.46;102222.56;5013088;28;20121;-70
2022/12/27 05:26:38;;;;;;;13.52;3.53;;;;;;;9.77;67.00;102227.72;5012694;28;20061;-70
2022/12/27 05:29:05;;;;;;;6.38;3.25;;;;;;;9.46;68.47;102227.91;5012345;28;20057;-69
2022/12/27 05:31:31;;;;;;;13.02;3.53;;;;;;;9.85;67.70;102224.13;5012258;28;20034;-69
2022/12/27 05:33:57;;;;;;;14.43;3.90;;;;;;;9.64;68.70;102240.97;5012945;28;20052;-69
2022/12/27 05:36:22;;;;;;;22.23;4.18;;;;;;;9.56;67.83;102243.75;5012374;28;20124;-69
2022/12/27 05:38:48;;;;;;;9.32;2.85;;;;;;;9.94;66.60;102242.63;5012600;28;20120;-70
2022/12/27 05:41:14;;;;;;;13.30;3.40;;;;;;;9.64;67.98;102255.22;5012430;28;20068;-69
2022/12/27 05:43:39;;;;;;;8.10;4.57;;;;;;;9.18;69.17;102258.22;5012289;28;20041;-68
2022/12/27 05:46:10;;;;;;;19.52;3.83;;;;;;;9.79;66.98;102268.66;5012626;28;20041;-68
2022/12/27 05:48:36;;;;;;;15.55;3.50;;;;;;;9.31;68.71;102272.69;5012185;28;20038;-69
2022/12/27 05:51:07;;;;;;;17.38;2.83;;;;;;;9.28;68.74;102273.03;5012320;28;20049;-70
2022/12/27 05:53:32;;;;;;;;;;;;;;;9.54;68.55;102270.78;5012676;28;20034;-69
2022/12/27 05:55:58;;;;;;;16.40;3.35;;;;;;;9.03;69.40;102281.47;5012154;28;19948;-68
2022/12/27 05:58:24;;;;;;;16.77;3.20;;;;;;;8.86;70.32;102270.84;5011942;28;20037;-70
2022/12/27 06:00:50;;;;;;;17.27;3.85;;;;;;;9.62;67.12;102268.00;5012550;28;20036;-71
2022/12/27 06:03:15;;;;;;;12.73;3.00;;;;;;;9.42;68.62;102263.34;5011738;28;20030;-68
2022/12/27 06:05:40;;;;;;;16.58;3.53;;;;;;;9.19;68.88;102267.94;5011469;28;20061;-69
2022/12/27 06:08:06;;;;;;;12.88;3.13;;;;;;;9.87;66.48;102265.06;5011999;28;20045;-69
2022/12/27 06:10:31;;;;;;;16.95;3.33;;;;;;;9.16;68.37;102274.47;5011760;28;20149;-70
2022/12/27 06:13:02;;;;;;;16.83;3.20;;;;;;;8.90;70.03;102282.09;5012360;28;20061;-69
2022/12/27 06:15:28;;;;;;;9.18;2.83;;;;;;;9.25;69.18;102283.28;5011697;28;20045;-68
2022/12/27 06:17:54;;;;;;;15.27;4.53;;;;;;;9.21;69.06;102273.94;5011888;28;20083;-68
2022/12/27 06:20:19;;;;;;;19.52;3.17;;;;;;;9.52;68.28;102278.16;5011494;28;20049;-69
2022/12/27 06:22:44;;;;;;;7.88;2.17;;;;;;;9.09;68.69;102294.16;5011675;28;20886;-68
2022/12/27 06:25:10;;;;;;;11.70;2.88;;;;;;;9.48;68.47;102281.38;5011994;28;20453;-68
2022/12/27 06:27:36;;;;;;;14.35;3.47;;;;;;;8.99;69.23;102281.00;5003860;28;20085;-71
2022/12/27 06:30:02;;;;;;;16.63;3.45;;;;;;;9.27;68.92;102281.25;5010102;28;20049;-67
2022/12/27 06:32:27;;;;;;;17.95;3.03;;;;;;;9.54;67.26;102270.78;5009296;28;20034;-67
2022/12/27 06:34:52;;;;;;;12.70;3.22;;;;;;;9.68;66.74;102272.63;5011156;28;20037;-69
2022/12/27 06:37:18;;;;;;;17.38;3.08;;;;;;;9.34;67.79;102266.09;5012000;28;20038;-68
2022/12/27 06:39:43;;;;;;;12.93;3.20;;;;;;;9.29;68.53;102279.25;5011625;28;20516;-69
2022/12/27 06:42:09;;;;;;;14.63;2.95;;;;;;;9.21;68.73;102279.31;5010249;28;20034;-68
2022/12/27 06:44:34;;;;;;;12.05;3.17;;;;;;;9.02;68.98;102277.94;5011231;28;20573;-69
2022/12/27 06:47:00;;;;;;;17.38;2.53;;;;;;;9.26;67.99;102279.59;5011381;28;20540;-68
2022/12/27 06:49:25;;;;;;;11.35;2.72;;;;;;;9.00;69.10;102298.75;5011518;28;20112;-69
2022/12/27 06:51:51;;;;;;;11.73;3.08;;;;;;;9.17;68.97;102284.19;5012146;28;20045;-69
2022/12/27 06:54:16;;;;;;;18.20;4.00;;;;;;;9.25;68.73;102300.22;5011824;28;20038;-69
2022/12/27 06:56:42;;;;;;;8.77;3.47;;;;;;;9.65;67.43;102310.56;4993790;28;20462;-68
2022/12/27 06:59:08;;;;;;;12.27;3.40;;;;;;;9.29;68.64;102300.69;5014451;28;20120;-69
2022/12/27 07:01:33;;;;;;;17.55;4.35;;;;;;;9.19;68.68;102310.84;5015343;28;20065;-69
2022/12/27 07:03:59;;;;;;;8.40;3.30;;;;;;;9.35;68.52;102300.81;5016024;28;20037;-69
2022/12/27 07:06:27;;;;;;;11.20;3.63;;;;;;;9.10;69.03;102307.38;5015334;28;20403;-68
2022/12/27 07:08:53;;;;;;;16.30;3.88;;;;;;;8.93;69.93;102311.19;5015478;28;20041;-68
2022/12/27 07:11:20;;;;;;;13.00;3.25;;;;;;;8.74;70.14;102317.03;5015453;28;20088;-69
2022/12/27 07:13:49;;;;;;;22.38;3.65;;;;;;;9.19;68.82;102334.97;5015295;28;20120;-68
2022/12/27 07:16:16;;;;;;;14.05;3.63;;;;;;;9.41;68.77;102334.13;5016051;28;20486;-69
2022/12/27 07:18:42;;;;;;;8.40;3.00;;;;;;;9.51;67.71;102340.06;5013082;28;20092;-69
2022/12/27 07:21:11;;;;;;;13.45;2.90;;;;;;;9.42;68.43;102339.31;5015135;28;20038;-68
2022/12/27 07:23:36;;;;;;;16.88;3.90;;;;;;;9.28;67.92;102340.09;5014968;28;20034;-68
2022/12/27 07:26:07;;;;;;;14.27;3.70;;;;;;;9.87;66.78;102340.22;5014975;28;20061;-68
2022/12/27 07:28:32;;;;;;;13.80;3.30;;;;;;;9.28;68.10;102342.78;5015228;28;20037;-69
2022/12/27 07:30:58;;;;;;;11.50;3.13;;;;;;;9.15;68.98;102339.88;5015273;28;20034;-70
2022/12/27 07:33:23;;;;;;;16.67;3.83;;;;;;;9.37;68.71;102348.91;5014639;28;20037;-69
2022/12/27 07:35:55;;;;;;;8.93;2.85;;;;;;;9.35;68.43;102346.41;5014740;28;20425;-68
2022/12/27 07:38:20;;;;;;;14.15;2.95;;;;;;;9.21;68.45;102351.72;5014831;28;20274;-69
2022/12/27 07:40:46;;;;;;;8.38;3.33;;;;;;;8.93;69.96;102359.44;5014502;28;20101;-68
2022/12/27 07:43:11;;;;;;;12.45;3.33;;;;;;;9.73;66.93;102355.28;5012496;28;20572;-69
2022/12/27 07:45:37;;;;;;;22.40;4.82;;;;;;;9.86;66.85;102354.66;5009247;28;20048;-69
2022/12/27 07:48:02;;;;;;;13.70;3.33;;;;;;;9.67;67.08;102353.31;5008717;28;20164;-68
2022/12/27 07:50:27;;;;;;;11.35;3.78;;;;;;;9.62;67.36;102364.63;5011099;28;20041;-68
2022/12/27 07:52:53;;;;;;;13.60;5.30;;;;;;;9.29;68.43;102363.22;5008073;28;20502;-68
2022/12/27 07:55:18;;;;;;;16.88;4.20;;;;;;;9.51;67.83;102369.59;5008350;28;20060;-68
2022/12/27 07:57:43;;;;;;;18.13;3.60;;;;;;;9.48;68.04;102361.88;5008385;28;20041;-67
2022/12/27 08:00:10;;;;;;;10.70;3.10;;;;;;;9.89;66.63;102373.91;5004750;28;20541;-70
2022/12/27 08:02:35;;;;;;;13.73;3.72;;;;;;;9.57;67.61;102369.69;5008517;28;20048;-71
2022/12/27 08:05:00;;;;;;;14.30;4.55;;;;;;;9.74;67.55;102370.38;5006633;28;20038;-69
2022/12/27 08:07:26;;;;;;;11.43;3.70;;;;;;;10.43;65.04;102370.00;5009920;28;20081;-69
2022/12/27 08:09:51;;;;;;;17.55;3.95;;;;;;;9.71;67.08;102378.78;5005646;28;20038;-70
2022/12/27 08:12:16;;;;;;;10.32;3.47;;;;;;;9.62;66.71;102382.56;5005661;28;20109;-69
2022/12/27 08:14:42;;;;;;;16.00;4.10;;;;;;;10.00;66.06;102392.28;5005097;28;20073;-69
2022/12/27 08:17:23;;;;;;;15.23;4.20;;;;;;;9.78;67.38;102387.78;5007045;28;20154;-69
2022/12/27 08:19:50;;;;;;;17.85;4.60;;;;;;;10.07;65.97;102403.94;4994889;28;20503;-70
2022/12/27 08:22:16;;;;;;;14.23;4.22;;;;;;;9.97;66.22;102402.53;5006127;28;20378;-70
2022/12/27 08:24:42;;;;;;;16.50;4.20;;;;;;;10.17;66.05;102409.91;5005533;28;20037;-68
2022/12/27 08:27:08;;;;;;;12.05;4.00;;;;;;;10.20;66.16;102408.72;5009533;28;20581;-69
2022/12/27 08:29:34;;;;;;;17.20;4.32;;;;;;;10.56;64.37;102423.91;5010034;28;20091;-68
2022/12/27 08:31:59;;;;;;;14.55;3.50;;;;;;;9.95;66.16;102413.47;4987416;28;20049;-70
2022/12/27 08:34:25;;;;;;;14.60;3.78;;;;;;;9.81;66.87;102422.31;5006251;28;20081;-69
2022/12/27 08:36:50;;;;;;;10.65;3.50;;;;;;;10.40;64.16;102410.66;5004960;28;20061;-70
2022/12/27 08:39:17;;;;;;;15.30;4.15;;;;;;;10.23;65.29;102411.88;5006901;28;20568;-68
2022/12/27 08:41:42;;;;;;;17.10;4.40;;;;;;;9.65;67.23;102404.50;5007619;28;20096;-69
2022/12/27 08:44:09;;;;;;;11.85;3.58;;;;;;;9.83;66.66;102417.59;5007165;28;20034;-68
2022/12/27 08:46:34;;;;;;;13.48;3.88;;;;;;;10.06;66.69;102421.09;5011760;28;20478;-70
2022/12/27 08:49:01;;;;;;;12.32;4.40;;;;;;;10.00;66.73;102418.28;5013032;28;20037;-70
2022/12/27 08:51:27;;;;;;;4.88;2.55;;;;;;;9.87;66.58;102418.91;5013231;28;20065;-68
2022/12/27 08:53:52;;;;;;;16.08;4.00;;;;;;;9.35;68.78;102413.47;5012917;28;20431;-68
2022/12/27 08:56:18;;;;;;;18.73;3.83;;;;;;;10.33;65.40;102417.81;5013465;28;20121;-68
2022/12/27 08:58:43;;;;;;;17.38;4.38;;;;;;;10.22;65.03;102423.63;5013012;28;20049;-69
2022/12/27 09:01:09;;;;;;;15.25;3.58;;;;;;;10.02;65.86;102430.53;5010407;28;20073;-67
2022/12/27 09:03:35;;;;;;;11.60;3.25;;;;;;;9.74;66.89;102426.75;5008546;28;20116;-68
2022/12/27 09:06:18;;;;;;;18.83;4.38;;;;;;;9.79;66.65;102423.53;5009500;28;20481;-68
2022/12/27 09:08:44;;;;;;;10.40;3.85;;;;;;;10.45;64.42;102418.19;5010024;28;20447;-67
2022/12/27 09:11:19;;;;;;;13.05;2.88;;;;;;;10.06;65.32;102422.94;5011729;28;20034;-67
2022/12/27 09:13:45;;;;;;;16.73;4.30;;;;;;;10.70;63.58;102430.28;5010120;28;20502;-68
2022/12/27 09:16:17;;;;;;;8.45;2.90;;;;;;;9.85;65.94;102426.31;5009014;28;20044;-69
2022/12/27 09:18:43;;;;;;;16.40;3.55;;;;;;;10.40;64.95;102426.78;5006899;28;20118;-67
2022/12/27 09:21:13;;;;;;;21.10;4.05;;;;;;;10.93;62.61;102428.31;5008608;28;20184;-68
2022/12/27 09:23:39;;;;;;;12.60;3.70;;;;;;;10.07;65.68;102433.50;5005450;28;20121;-68
2022/12/27 09:26:13;;;;;;;14.00;3.75;;;;;;;10.35;65.29;102439.09;5008667;28;20443;-67
2022/12/27 09:28:39;;;;;;;14.18;3.53;;;;;;;10.85;63.47;102435.66;5006128;28;20022;-68
2022/12/27 09:31:07;;;;;;;18.50;3.72;;;;;;;10.90;63.63;102435.91;5009204;28;20037;-69
2022/12/27 09:33:33;;;;;;;18.30;3.25;;;;;;;10.79;63.68;102444.47;5008194;28;20120;-69
2022/12/27 09:36:10;;;;;;;21.48;4.70;;;;;;;10.70;64.56;102446.44;5008459;28;20431;-70
2022/12/27 09:38:36;;;;;;;12.10;3.05;;;;;;;10.09;66.05;102449.41;5005627;28;20113;-70
2022/12/27 09:41:05;;;;;;;17.67;3.75;;;;;;;10.66;65.38;102449.66;5009174;28;20191;-68
2022/12/27 09:44:02;;;;;;;18.90;3.25;;;;;;;10.78;64.46;102446.31;5009010;28;20010;-73
2022/12/27 09:46:38;;;;;;;15.75;3.80;;;;;;;10.52;65.17;102437.91;4928329;29;21598;-70
2022/12/27 09:49:05;;;;;;;14.43;3.17;;;;;;;10.56;64.90;102445.41;4928722;29;20134;-69
2022/12/27 09:51:39;;;;;;;10.63;2.85;;;;;;;10.39;64.97;102446.63;4928836;29;20047;-69
2022/12/27 09:54:16;;;;;;;10.10;3.83;;;;;;;10.97;64.09;102448.41;4928736;29;20491;-70
2022/12/27 09:56:42;;;;;;;20.50;4.97;;;;;;;10.93;63.65;102449.00;4928845;29;20044;-71
2022/12/27 09:59:24;;;;;;;15.98;4.03;;;;;;;11.42;62.08;102448.09;4928160;29;20563;-71
2022/12/27 10:01:50;;;;;;;17.15;6.03;;;;;;;10.43;64.70;102449.78;4928331;29;20047;-69
2022/12/27 10:04:16;;;;;;;8.88;3.17;;;;;;;10.96;63.78;102444.09;4928108;29;20138;-70
2022/12/27 10:06:48;;;;;;;14.57;3.05;;;;;;;10.35;65.39;102441.81;4928391;28;20051;-70
2022/12/27 10:09:31;;;;;;;10.90;3.95;;;;;;;11.01;63.31;102447.03;4928341;29;20052;-68
2022/12/27 10:12:20;;;;;;;13.05;2.78;;;;;;;10.68;64.66;102453.00;4928352;29;20043;-69
2022/12/27 10:15:27;;;;;;;13.65;3.13;;;;;;;10.63;64.63;102447.38;4927736;29;20563;-68
2022/12/27 10:18:24;;;;;;;26.50;3.88;;;;;;;10.96;64.24;102441.38;4927760;28;20536;-69
2022/12/27 10:21:13;;;;;;;13.68;4.75;;;;;;;11.49;62.65;102445.50;4928668;29;20452;-69
2022/12/27 10:23:43;;;;;;;11.73;2.67;;;;;;;10.98;63.32;102431.28;4993641;28;20038;-69
2022/12/27 10:26:18;;;;;;;10.77;2.80;;;;;;;11.49;61.98;102432.88;5008199;28;20047;-69
2022/12/27 10:28:49;;;;;;;7.47;2.90;;;;;;;11.31;62.77;102439.72;5007998;28;20138;-69
2022/12/27 10:31:16;;;;;;;;;;;;;;;11.77;60.99;102435.66;5009574;28;20431;-71
2022/12/27 10:33:43;;;;;;;10.95;2.50;;;;;;;11.70;61.69;102440.13;5010334;28;19957;-70
2022/12/27 10:36:13;;;;;;;11.25;3.75;;;;;;;11.49;61.94;102437.41;5012251;28;20034;-71
2022/12/27 10:38:38;;;;;;;17.80;3.58;;;;;;;11.91;61.60;102437.41;5012177;28;20049;-70
2022/12/27 10:41:19;;;;;;;10.20;2.47;;;;;;;12.01;60.18;102437.09;5012578;28;20645;-70
2022/12/27 10:43:49;;;;;;;14.45;2.90;;;;;;;11.73;61.48;102442.44;5012789;28;20041;-68
2022/12/27 10:46:19;;;;;;;14.13;3.70;;;;;;;11.56;62.16;102442.88;5012383;28;20113;-72
2022/12/27 10:49:20;;;;;;;9.48;3.03;;;;;;;11.51;62.72;102454.22;5012237;28;20044;-71
2022/12/27 10:51:46;;;;;;;12.13;4.70;;;;;;;11.72;61.40;102459.63;4931581;29;20059;-69
2022/12/27 10:54:19;;;;;;;15.32;3.97;;;;;;;11.84;61.43;102466.16;4932269;29;20055;-68
2022/12/27 10:56:45;;;;;;;13.32;2.97;;;;;;;12.22;60.60;102448.66;4931809;29;20721;-69
2022/12/27 10:59:16;;;;;;;12.10;3.42;;;;;;;12.27;60.18;102453.44;4931163;29;20039;-70
2022/12/27 11:02:08;;;;;;;14.00;4.60;;;;;;;12.45;59.17;102448.38;4931091;29;20194;-69
2022/12/27 11:04:33;;;;;;;13.20;4.05;;;;;;;12.21;60.30;102451.53;4927008;28;20059;-68
2022/12/27 11:06:58;;;;;;;14.05;5.20;;;;;;;12.56;59.47;102455.91;4931610;29;20052;-76
2022/12/27 11:09:24;;;;;;;15.13;4.38;;;;;;;11.68;61.68;102457.50;4931807;28;20544;-68
2022/12/27 11:11:50;;;;;;;17.00;4.88;;;;;;;11.88;61.23;102450.44;4915340;29;20052;-69
2022/12/27 11:14:18;;;;;;;21.65;5.25;;;;;;;11.75;61.43;102448.47;4928946;29;20563;-70
2022/12/27 11:16:45;;;;;;;17.15;4.22;;;;;;;11.92;60.58;102451.72;4929390;29;20039;-69
2022/12/27 11:19:26;;;;;;;10.30;4.80;;;;;;;11.71;62.02;102460.66;4931419;29;20066;-70
2022/12/27 11:21:54;;;;;;;21.45;4.32;;;;;;;11.63;62.20;102462.59;4931351;29;20044;-68
2022/12/27 11:24:21;;;;;;;26.42;4.80;;;;;;;11.81;61.64;102463.03;4931136;29;20048;-69
2022/12/27 11:27:04;;;;;;;14.60;4.95;;;;;;;11.46;62.87;102464.69;4931058;29;20047;-67
2022/12/27 11:29:32;;;;;;;15.32;5.35;;;;;;;11.54;62.92;102469.97;4987387;28;20406;-71
2022/12/27 11:32:06;;;;;;;10.30;4.80;;;;;;;11.91;61.21;102461.66;4991726;28;20049;-69
2022/12/27 11:34:35;;;;;;;14.50;5.63;;;;;;;11.90;61.51;102462.69;4988529;28;20061;-68
2022/12/27 11:37:05;;;;;;;7.68;5.15;;;;;;;12.24;60.87;102453.84;4988485;28;20097;-69
2022/12/27 11:39:51;;;;;;;15.85;6.63;;;;;;;12.26;60.16;102457.19;4988810;28;20395;-69
2022/12/27 11:42:19;;;;;;;11.43;5.50;;;;;;;13.51;56.79;102462.13;5005071;28;20039;-68
2022/12/27 11:45:36;;;;;;;17.17;6.03;;;;;;;13.07;57.79;102446.41;4990305;28;20483;-69
2022/12/27 11:48:05;;;;;;;18.67;5.85;;;;;;;12.10;60.19;102446.69;4988574;28;20042;-70
2022/12/27 11:50:49;;;;;;;12.10;5.38;;;;;;;11.86;61.54;102447.94;4987683;28;20065;-69
2022/12/27 11:53:41;;;;;;;12.07;5.47;;;;;;;12.41;60.24;102435.47;4988575;28;20038;-69
2022/12/27 11:56:39;;;;;;;18.73;6.15;;;;;;;12.45;59.99;102431.34;4990472;28;20104;-68
2022/12/27 11:59:26;;;;;;;13.48;5.20;;;;;;;12.16;60.07;102427.88;4990057;28;20101;-69
2022/12/27 12:02:16;;;;;;;14.07;5.18;;;;;;;12.12;61.04;102426.59;4986004;28;20062;-69
2022/12/27 12:05:20;;;;;;;17.27;5.63;;;;;;;11.91;61.93;102433.91;4989406;28;20080;-70
2022/12/27 12:08:25;;;;;;;10.88;6.00;;;;;;;12.46;59.90;102433.03;5008889;28;20359;-68
2022/12/27 12:11:10;;;;;;;14.75;5.95;;;;;;;11.92;61.97;102431.00;5010236;28;20045;-70
2022/12/27 12:13:51;;;;;;;20.23;6.13;;;;;;;12.35;60.42;102431.72;5005239;28;20025;-68
2022/12/27 12:16:28;;;;;;;18.13;6.38;;;;;;;12.61;60.25;102414.84;5008260;28;20123;-68
2022/12/27 12:19:12;;;;;;;17.30;6.95;;;;;;;12.48;60.55;102414.81;5006211;28;20501;-69
2022/12/27 12:21:56;;;;;;;28.65;7.82;;;;;;;12.48;59.90;102412.09;5007861;28;20077;-68
2022/12/27 12:24:42;;;;;;;20.30;7.38;;;;;;;12.28;60.45;102415.50;5008648;28;20045;-68
2022/12/27 12:27:30;;;;;;;16.88;8.00;;;;;;;12.55;60.07;102418.34;5009074;28;20041;-68
2022/12/27 12:30:18;;;;;;;20.40;6.80;;;;;;;13.59;57.47;102407.91;5007277;28;20042;-68
2022/12/27 12:33:03;;;;;;;22.40;8.35;;;;;;;13.30;57.85;102405.59;5009527;28;20034;-69
2022/12/27 12:35:47;;;;;;;22.38;7.78;;;;;;;13.46;57.39;102394.41;5009748;28;20100;-69
2022/12/27 12:38:16;;;;;;;17.40;7.65;;;;;;;13.39;57.88;102395.41;5006984;28;20038;-69
2022/12/27 12:41:04;;;;;;;18.33;7.43;;;;;;;13.05;58.85;102393.69;5009894;28;20041;-70
2022/12/27 12:43:48;;;;;;;17.27;8.70;;;;;;;13.07;59.26;102392.44;5009243;28;20496;-69
2022/12/27 12:46:16;;;;;;;15.95;7.97;;;;;;;13.32;57.69;102386.47;5007332;28;20474;-69
2022/12/27 12:48:44;;;;;;;18.42;7.75;;;;;;;12.44;60.11;102391.97;5009127;28;20080;-69
2022/12/27 12:52:08;;;;;;;18.42;8.20;;;;;;;12.92;58.98;102380.97;5009840;28;20132;-69
2022/12/27 12:54:45;;;;;;;11.35;7.32;;;;;;;12.82;59.82;102376.97;4921526;29;20686;-69
2022/12/27 12:57:28;;;;;;;12.05;6.78;;;;;;;12.58;60.56;102372.94;4920059;29;20107;-69
2022/12/27 13:00:11;;;;;;;12.23;7.50;;;;;;;12.77;60.08;102366.81;4931081;29;20094;-70
2022/12/27 13:03:09;;;;;;;22.83;9.48;;;;;;;13.04;59.46;102355.06;4927507;29;20555;-70
2022/12/27 13:05:40;;;;;;;38.60;9.07;;;;;;;13.90;57.28;102355.94;4918180;29;20120;-69
2022/12/27 13:08:18;;;;;;;;;;;;;;;13.15;58.98;102359.88;4929112;29;20756;-67
2022/12/27 13:11:11;;;;;;;14.10;7.82;;;;;;;12.75;60.26;102365.34;4908431;29;20739;-69
2022/12/27 13:14:09;;;;;;;19.83;8.32;;;;;;;13.00;59.35;102353.78;4929505;29;20103;-68
2022/12/27 13:16:46;;;;;;;11.65;7.47;;;;;;;12.50;61.36;102343.44;4868347;29;20080;-70
2022/12/27 13:19:20;;;;;;;18.85;7.38;;;;;;;12.87;61.25;102339.44;4868768;29;20048;-70
2022/12/27 13:22:01;;;;;;;20.83;8.38;;;;;;;13.74;57.87;102332.03;4876832;29;20439;-69
2022/12/27 13:24:53;;;;;;;22.25;8.75;;;;;;;12.89;60.92;102322.00;4885229;29;20055;-69